Time;durP1;ratioP1;P1;durP2;ratioP2;P2;SDS_P1;SDS_P2;PMS_P1;PMS_P2;Temp;Humidity;BMP_temperature;BMP_pressure;BME280_temperature;BME280_humidity;BME280_pressure;Samples;Min_cycle;Max_cycle;Signal;HPM_P1;HPM_P2
2022/09/18 00:01:26;;;;;;;4.85;2.40;;;18.00;64.60;;;;;;5084369;28;20032;-83
2022/09/18 00:03:57;;;;;;;5.10;2.58;;;17.80;65.80;;;;;;5075059;28;20498;-83
2022/09/18 00:06:25;;;;;;;6.47;2.42;;;18.10;64.80;;;;;;5064792;28;20055;-82
2022/09/18 00:08:53;;;;;;;3.55;2.38;;;18.40;64.70;;;;;;5083621;28;20024;-83
2022/09/18 00:11:21;;;;;;;4.03;2.38;;;18.50;64.60;;;;;;5075555;28;20138;-84
2022/09/18 00:13:48;;;;;;;5.70;2.80;;;18.30;65.00;;;;;;5075953;28;20143;-85
2022/09/18 00:16:16;;;;;;;4.97;2.58;;;18.00;65.30;;;;;;5075538;28;20077;-83
2022/09/18 00:18:42;;;;;;;5.32;2.85;;;18.20;64.80;;;;;;5092984;28;20024;-79
2022/09/18 00:21:12;;;;;;;5.00;2.60;;;18.40;64.00;;;;;;5075351;28;20074;-79
2022/09/18 00:23:38;;;;;;;5.57;2.20;;;18.30;64.50;;;;;;5075330;28;20050;-78
2022/09/18 00:26:05;;;;;;;9.48;3.10;;;18.50;64.20;;;;;;5074614;28;20080;-78
2022/09/18 00:28:32;;;;;;;8.18;2.83;;;18.20;64.70;;;;;;5074926;28;20389;-78
2022/09/18 00:31:08;;;;;;;4.38;2.70;;;18.20;64.90;;;;;;5093297;28;20494;-83
2022/09/18 00:33:34;;;;;;;5.78;2.50;;;18.00;65.20;;;;;;5075521;28;20086;-81
2022/09/18 00:36:05;;;;;;;5.43;2.38;;;18.10;64.80;;;;;;5073553;28;20025;-81
2022/09/18 00:38:32;;;;;;;4.53;2.60;;;18.10;65.10;;;;;;5057880;28;20021;-82
2022/09/18 00:40:59;;;;;;;9.02;3.22;;;18.30;64.60;;;;;;5059134;28;20035;-79
2022/09/18 00:43:27;;;;;;;5.68;2.72;;;18.30;64.60;;;;;;5070551;28;20016;-82
2022/09/18 00:46:17;;;;;;;5.32;2.38;;;18.20;64.70;;;;;;5065121;28;20497;-77
2022/09/18 00:49:01;;;;;;;7.72;2.70;;;18.00;65.30;;;;;;5071279;28;20383;-82
2022/09/18 00:51:29;;;;;;;6.43;2.70;;;18.10;65.30;;;;;;5092085;28;20031;-80
2022/09/18 00:54:07;;;;;;;5.60;2.72;;;18.00;64.90;;;;;;5063101;28;20028;-83
2022/09/18 00:56:34;;;;;;;5.45;2.83;;;18.00;64.30;;;;;;5075902;28;20028;-85
2022/09/18 00:58:59;;;;;;;5.05;2.60;;;18.10;64.70;;;;;;5078877;28;20024;-83
2022/09/18 01:01:25;;;;;;;8.25;2.70;;;18.10;64.60;;;;;;5078477;28;20048;-82
2022/09/18 01:03:51;;;;;;;5.80;2.60;;;18.20;64.10;;;;;;5095792;28;20072;-81
2022/09/18 01:06:30;;;;;;;7.15;2.50;;;18.20;63.80;;;;;;5063282;28;20128;-79
2022/09/18 01:09:21;;;;;;;7.47;2.70;;;18.10;63.80;;;;;;5078629;28;20025;-83
2022/09/18 01:12:04;;;;;;;;;;;17.90;63.80;;;;;;5059526;28;20056;-85
2022/09/18 01:14:37;;;;;;;5.85;2.50;;;17.70;64.40;;;;;;5076992;28;19947;-80
2022/09/18 01:17:45;;;;;;;5.57;2.30;;;17.80;64.30;;;;;;5084567;28;20114;-85
2022/09/18 01:20:20;;;;;;;6.30;2.40;;;17.40;64.20;;;;;;5064421;28;20042;-84
2022/09/18 01:23:13;;;;;;;5.78;2.50;;;16.90;65.70;;;;;;5078630;28;20100;-83
2022/09/18 01:26:26;;;;;;;4.45;2.42;;;17.00;65.30;;;;;;5069876;28;20071;-83
2022/09/18 01:29:04;;;;;;;7.28;2.70;;;16.70;65.70;;;;;;5053456;28;20078;-79
2022/09/18 01:31:51;;;;;;;6.57;2.63;;;16.80;65.90;;;;;;5093327;28;20063;-82
2022/09/18 01:34:39;;;;;;;9.10;2.65;;;17.00;65.00;;;;;;5071344;28;20024;-80
2022/09/18 01:37:22;;;;;;;6.35;2.75;;;17.30;63.60;;;;;;5075657;28;20016;-81
2022/09/18 01:40:03;;;;;;;5.82;2.40;;;17.00;64.50;;;;;;5088793;28;20032;-78
2022/09/18 01:42:31;;;;;;;8.48;2.50;;;16.90;64.60;;;;;;5067932;28;20024;-83
2022/09/18 01:45:01;;;;;;;6.07;2.80;;;16.80;64.20;;;;;;5057791;28;20090;-81
2022/09/18 01:47:31;;;;;;;5.57;2.58;;;16.70;64.60;;;;;;5076150;28;20357;-83
2022/09/18 01:49:59;;;;;;;7.03;2.65;;;16.90;64.10;;;;;;5057388;28;20035;-81
2022/09/18 01:52:47;;;;;;;7.57;3.03;;;17.20;63.30;;;;;;5057876;28;20029;-89
2022/09/18 01:55:18;;;;;;;5.28;2.53;;;17.30;63.00;;;;;;5057643;28;20024;-83
2022/09/18 01:57:56;;;;;;;6.00;2.47;;;17.40;62.60;;;;;;5066697;28;20020;-81
2022/09/18 02:00:23;;;;;;;5.20;2.40;;;17.20;63.10;;;;;;5095113;28;20107;-83
2022/09/18 02:03:04;;;;;;;8.25;2.40;;;17.20;63.00;;;;;;5060567;28;20025;-79
2022/09/18 02:05:36;;;;;;;4.78;2.65;;;17.10;63.00;;;;;;5056679;28;20036;-82
2022/09/18 02:08:22;;;;;;;5.18;2.50;;;17.30;63.00;;;;;;5057276;28;20112;-80
2022/09/18 02:10:54;;;;;;;5.97;2.55;;;17.10;63.50;;;;;;5059051;28;20055;-81
2022/09/18 02:13:27;;;;;;;7.28;2.53;;;17.40;63.00;;;;;;5057542;28;20036;-78
2022/09/18 02:16:00;;;;;;;6.22;2.50;;;17.30;62.50;;;;;;5075296;28;20035;-81
2022/09/18 02:18:31;;;;;;;5.80;2.28;;;17.40;62.50;;;;;;5075750;28;20021;-89
2022/09/18 02:20:57;;;;;;;;;;;17.10;62.60;;;;;;5057522;28;20029;-83
2022/09/18 02:23:23;;;;;;;6.38;2.75;;;16.80;63.20;;;;;;5057936;28;20366;-81
2022/09/18 02:25:53;;;;;;;4.60;2.40;;;16.70;62.80;;;;;;5063085;28;20380;-84
2022/09/18 02:28:22;;;;;;;6.60;2.63;;;16.80;63.00;;;;;;5082103;28;20012;-80
2022/09/18 02:30:48;;;;;;;4.45;2.40;;;16.70;63.30;;;;;;5075321;28;20082;-86
2022/09/18 02:33:32;;;;;;;7.63;2.60;;;16.60;63.30;;;;;;5060323;28;20013;-78
2022/09/18 02:36:35;;;;;;;6.38;2.50;;;16.80;63.00;;;;;;5088170;28;20036;-86
2022/09/18 02:39:35;;;;;;;7.28;2.55;;;16.50;63.40;;;;;;5065760;28;20158;-80
2022/09/18 02:42:28;;;;;;;5.68;2.50;;;16.70;63.00;;;;;;5092440;28;20024;-86
2022/09/18 02:44:54;;;;;;;5.18;2.88;;;16.90;62.20;;;;;;5074172;28;20127;-83
2022/09/18 02:47:45;;;;;;;6.07;2.50;;;16.70;62.20;;;;;;5074975;28;20031;-82
2022/09/18 02:50:21;;;;;;;4.05;2.30;;;16.60;62.10;;;;;;5070390;28;20056;-84
2022/09/18 02:53:16;;;;;;;4.97;2.42;;;16.70;62.40;;;;;;5056973;28;20029;-82
2022/09/18 02:55:48;;;;;;;5.20;2.40;;;16.80;62.10;;;;;;5056482;28;20029;-79
2022/09/18 02:58:20;;;;;;;6.05;2.22;;;16.80;61.90;;;;;;5085173;28;20028;-82
2022/09/18 03:00:47;;;;;;;5.35;2.40;;;16.80;61.60;;;;;;5067226;28;20042;-80
2022/09/18 03:03:17;;;;;;;5.57;2.35;;;16.60;62.00;;;;;;5058245;28;20032;-83
2022/09/18 03:05:44;;;;;;;4.75;2.40;;;16.70;61.80;;;;;;5075372;28;20032;-83
2022/09/18 03:08:10;;;;;;;5.72;2.30;;;16.80;61.10;;;;;;5076039;28;20020;-81
2022/09/18 03:10:36;;;;;;;5.35;2.28;;;16.90;60.90;;;;;;5076463;28;20032;-81
2022/09/18 03:13:01;;;;;;;4.68;2.28;;;16.90;61.10;;;;;;5076148;28;20444;-84
2022/09/18 03:15:27;;;;;;;4.65;2.22;;;16.70;61.60;;;;;;5093936;28;20062;-82
2022/09/18 03:17:53;;;;;;;5.90;2.40;;;16.70;61.70;;;;;;5076445;28;20024;-80
2022/09/18 03:20:18;;;;;;;6.00;2.38;;;16.50;61.60;;;;;;5076099;28;20141;-81
2022/09/18 03:22:44;;;;;;;6.10;2.30;;;16.40;61.80;;;;;;5076202;28;20459;-86
2022/09/18 03:25:13;;;;;;;6.07;2.38;;;16.60;61.70;;;;;;5092988;28;20449;-84
2022/09/18 03:27:39;;;;;;;6.20;2.30;;;16.70;60.80;;;;;;5076046;28;20032;-80
2022/09/18 03:30:05;;;;;;;5.18;2.30;;;16.40;62.00;;;;;;5075492;28;20024;-78
2022/09/18 03:32:31;;;;;;;7.07;2.63;;;16.40;61.60;;;;;;5075701;28;20024;-86
2022/09/18 03:34:57;;;;;;;6.28;2.35;;;16.30;62.00;;;;;;5076306;28;20032;-86
2022/09/18 03:37:23;;;;;;;5.53;2.38;;;16.20;62.50;;;;;;5076644;28;20479;-83
2022/09/18 03:39:48;;;;;;;4.65;2.22;;;16.60;61.80;;;;;;5076512;28;20093;-92
2022/09/18 03:42:14;;;;;;;5.10;2.30;;;16.70;61.00;;;;;;5061967;28;20028;-77
2022/09/18 03:44:40;;;;;;;4.97;2.28;;;16.70;61.30;;;;;;5065401;28;20044;-87
2022/09/18 03:47:08;;;;;;;4.93;2.20;;;16.70;61.10;;;;;;5071375;28;20503;-82
2022/09/18 03:49:34;;;;;;;6.68;2.20;;;16.50;61.20;;;;;;5073172;28;20020;-84
2022/09/18 03:52:00;;;;;;;6.65;2.97;;;16.30;61.30;;;;;;5073645;28;20105;-85
2022/09/18 03:54:26;;;;;;;5.63;2.47;;;16.50;62.00;;;;;;5073615;28;20021;-82
2022/09/18 03:56:51;;;;;;;5.15;2.10;;;16.60;60.90;;;;;;5072490;28;20017;-82
2022/09/18 03:59:17;;;;;;;5.55;2.22;;;16.80;60.90;;;;;;5072495;28;20429;-85
2022/09/18 04:01:43;;;;;;;4.32;2.25;;;17.10;59.70;;;;;;5072290;28;20112;-80
2022/09/18 04:04:08;;;;;;;4.30;2.28;;;17.20;59.60;;;;;;5071976;28;20130;-80
2022/09/18 04:06:34;;;;;;;5.53;2.65;;;16.90;58.80;;;;;;5072321;28;20032;-79
2022/09/18 04:08:59;;;;;;;5.60;2.60;;;16.70;60.10;;;;;;5072841;28;20021;-83
2022/09/18 04:11:25;;;;;;;5.47;2.20;;;16.50;60.70;;;;;;5072438;28;20025;-88
2022/09/18 04:13:51;;;;;;;4.57;2.30;;;16.50;60.50;;;;;;5077008;28;20013;-80
2022/09/18 04:16:17;;;;;;;3.97;2.08;;;16.70;60.00;;;;;;5077625;28;20031;-84
2022/09/18 04:18:42;;;;;;;4.05;2.13;;;16.80;60.30;;;;;;5077584;28;20028;-84
2022/09/18 04:21:08;;;;;;;5.53;2.25;;;16.70;60.10;;;;;;5076700;28;20498;-82
2022/09/18 04:23:34;;;;;;;7.35;2.15;;;16.90;59.50;;;;;;5077079;28;20024;-85
2022/09/18 04:26:07;;;;;;;6.03;2.42;;;16.90;59.40;;;;;;5076339;28;20029;-87
2022/09/18 04:28:33;;;;;;;5.72;2.30;;;16.80;59.70;;;;;;5076266;28;20119;-80
2022/09/18 04:30:59;;;;;;;5.25;1.90;;;16.90;59.00;;;;;;5075938;28;20119;-86
2022/09/18 04:33:24;;;;;;;3.92;1.90;;;17.00;59.70;;;;;;5077017;28;20103;-81
2022/09/18 04:35:50;;;;;;;4.13;1.95;;;17.30;59.20;;;;;;5077255;28;20033;-87
2022/09/18 04:38:15;;;;;;;4.03;2.00;;;17.40;58.40;;;;;;5075907;28;20074;-87
2022/09/18 04:40:41;;;;;;;4.03;2.00;;;17.20;58.40;;;;;;5075776;28;20021;-85
2022/09/18 04:43:09;;;;;;;4.80;2.22;;;16.90;58.60;;;;;;5076400;28;20033;-87
2022/09/18 04:45:35;;;;;;;4.32;2.17;;;17.00;59.00;;;;;;5075153;28;20083;-82
2022/09/18 04:48:01;;;;;;;4.28;2.00;;;17.00;59.40;;;;;;5075759;28;20056;-78
2022/09/18 04:50:27;;;;;;;4.30;2.08;;;16.70;59.30;;;;;;5075663;28;20103;-82
2022/09/18 04:52:52;;;;;;;4.25;2.10;;;16.70;59.20;;;;;;5076396;28;20067;-79
2022/09/18 04:55:18;;;;;;;3.35;1.90;;;16.80;59.80;;;;;;5075193;28;20027;-88
2022/09/18 04:57:44;;;;;;;7.28;2.22;;;17.00;59.00;;;;;;5075454;28;20025;-80
2022/09/18 05:00:10;;;;;;;4.53;1.92;;;16.70;59.90;;;;;;5076611;28;20541;-80
2022/09/18 05:02:39;;;;;;;4.45;2.00;;;16.40;60.10;;;;;;5074873;28;20029;-85
2022/09/18 05:05:05;;;;;;;5.93;1.95;;;16.70;60.10;;;;;;5076589;28;20037;-86
2022/09/18 05:07:33;;;;;;;5.70;2.10;;;17.00;59.10;;;;;;5075171;28;20058;-77
2022/09/18 05:09:59;;;;;;;3.72;1.77;;;17.00;59.40;;;;;;5076620;28;20025;-86
2022/09/18 05:12:25;;;;;;;4.40;2.05;;;17.40;59.00;;;;;;5076522;28;20017;-84
2022/09/18 05:14:51;;;;;;;3.22;1.90;;;17.60;58.50;;;;;;5076604;28;20037;-81
2022/09/18 05:17:16;;;;;;;4.25;2.20;;;17.60;58.50;;;;;;5075386;28;20055;-80
2022/09/18 05:19:42;;;;;;;5.65;2.00;;;17.40;58.90;;;;;;5076805;28;20024;-87
2022/09/18 05:22:08;;;;;;;5.70;2.10;;;17.50;58.50;;;;;;5075525;28;20378;-86
2022/09/18 05:24:33;;;;;;;5.43;2.35;;;17.40;58.40;;;;;;5073743;28;20368;-80
2022/09/18 05:26:59;;;;;;;6.00;2.20;;;17.40;58.40;;;;;;5075358;28;20028;-90
2022/09/18 05:29:25;;;;;;;6.15;1.92;;;17.70;58.60;;;;;;5076261;28;20036;-87
2022/09/18 05:31:50;;;;;;;4.10;1.80;;;17.60;58.40;;;;;;5076309;28;20463;-83
2022/09/18 05:34:16;;;;;;;5.03;1.90;;;17.70;57.90;;;;;;5075002;28;20032;-82
2022/09/18 05:36:42;;;;;;;5.30;2.10;;;17.80;58.30;;;;;;5075876;28;20029;-83
2022/09/18 05:39:07;;;;;;;3.83;1.77;;;17.90;57.50;;;;;;5076130;28;20024;-83
2022/09/18 05:41:33;;;;;;;3.05;1.70;;;17.70;57.90;;;;;;5076009;28;20025;-82
2022/09/18 05:43:59;;;;;;;4.03;1.98;;;17.90;57.90;;;;;;5074636;28;20051;-82
2022/09/18 05:46:24;;;;;;;4.47;2.35;;;17.90;57.30;;;;;;5075640;28;20071;-80
2022/09/18 05:48:51;;;;;;;4.07;1.73;;;17.80;57.80;;;;;;5074822;28;20107;-89
2022/09/18 05:51:17;;;;;;;5.28;2.13;;;17.50;58.20;;;;;;5074664;28;20028;-82
2022/09/18 05:53:47;;;;;;;4.60;1.90;;;17.60;57.90;;;;;;5074906;28;20021;-89
2022/09/18 05:56:14;;;;;;;4.07;1.75;;;17.80;58.00;;;;;;5074849;28;20050;-89
2022/09/18 05:58:39;;;;;;;5.85;1.90;;;18.10;57.70;;;;;;5075609;28;20020;-80
2022/09/18 06:01:05;;;;;;;8.45;1.90;;;18.20;57.20;;;;;;5075501;28;20032;-88
2022/09/18 06:03:31;;;;;;;4.75;1.83;;;18.10;56.70;;;;;;5075393;28;20032;-80
2022/09/18 06:05:56;;;;;;;6.53;1.80;;;17.40;57.40;;;;;;5076033;28;20498;-80
2022/09/18 06:08:22;;;;;;;2.88;1.60;;;17.30;58.50;;;;;;5074041;28;20035;-92
2022/09/18 06:10:48;;;;;;;4.32;1.70;;;17.30;58.30;;;;;;5075453;28;20493;-81
2022/09/18 06:13:16;;;;;;;4.38;1.98;;;17.50;58.50;;;;;;5075085;28;20021;-86
2022/09/18 06:15:47;;;;;;;3.42;1.58;;;17.60;57.10;;;;;;5074201;28;20432;-86
2022/09/18 06:18:14;;;;;;;4.78;2.00;;;17.70;57.90;;;;;;5074096;28;20107;-81
2022/09/18 06:20:50;;;;;;;3.67;1.70;;;17.60;57.20;;;;;;4741298;28;10000499;-77
2022/09/18 06:23:15;;;;;;;4.35;1.60;;;17.50;57.40;;;;;;5093037;28;20031;-80
2022/09/18 06:25:41;;;;;;;4.55;1.77;;;17.80;58.00;;;;;;4742158;28;9999725;-85
2022/09/18 06:28:07;;;;;;;5.97;1.70;;;18.10;57.60;;;;;;5093618;28;20024;-83
2022/09/18 06:30:34;;;;;;;4.60;1.67;;;18.60;56.80;;;;;;5092476;28;20028;-81
2022/09/18 06:33:04;;;;;;;7.32;1.60;;;18.50;55.80;;;;;;5094891;28;20076;-91
2022/09/18 06:35:32;;;;;;;3.72;1.80;;;18.60;56.70;;;;;;5093545;28;20031;-80
2022/09/18 06:38:05;;;;;;;3.97;1.60;;;18.80;55.60;;;;;;5094166;28;20024;-85
2022/09/18 06:40:32;;;;;;;3.75;1.50;;;18.80;55.50;;;;;;5094271;28;20020;-80
2022/09/18 06:43:00;;;;;;;3.88;1.60;;;18.50;56.30;;;;;;5093930;28;20016;-86
2022/09/18 06:45:27;;;;;;;3.83;1.63;;;18.60;56.30;;;;;;5111828;28;20047;-84
2022/09/18 06:47:53;;;;;;;3.83;1.75;;;18.80;56.10;;;;;;5097069;28;20421;-84
2022/09/18 06:50:24;;;;;;;4.57;1.90;;;18.90;56.80;;;;;;5096941;28;20032;-83
2022/09/18 06:52:50;;;;;;;4.55;1.88;;;19.00;56.30;;;;;;5115182;28;20068;-81
2022/09/18 06:55:17;;;;;;;5.80;1.60;;;18.90;56.50;;;;;;5114998;28;20031;-86
2022/09/18 06:57:55;;;;;;;2.70;1.58;;;18.70;56.70;;;;;;5096853;28;20083;-85
2022/09/18 07:00:22;;;;;;;3.72;1.98;;;18.30;57.10;;;;;;5114568;28;20401;-83
2022/09/18 07:02:59;;;;;;;4.25;2.00;;;17.80;58.00;;;;;;5096598;28;20110;-81
2022/09/18 07:05:27;;;;;;;5.03;2.80;;;17.60;59.10;;;;;;5096406;28;20042;-81
2022/09/18 07:07:53;;;;;;;7.13;3.35;;;17.90;59.20;;;;;;5114778;28;20031;-80
2022/09/18 07:10:19;;;;;;;8.52;3.97;;;18.00;58.50;;;;;;5114557;28;20016;-81
2022/09/18 07:12:47;;;;;;;5.25;3.00;;;18.00;59.30;;;;;;5096319;28;20168;-81
2022/09/18 07:15:17;;;;;;;3.70;2.10;;;18.30;58.50;;;;;;5096590;28;20015;-79
2022/09/18 07:17:44;;;;;;;6.22;3.05;;;18.50;58.50;;;;;;5096152;28;20027;-85
2022/09/18 07:20:11;;;;;;;3.40;1.77;;;18.60;58.20;;;;;;5114238;28;20026;-82
2022/09/18 07:22:38;;;;;;;4.65;2.08;;;18.70;57.10;;;;;;5096430;28;20073;-85
2022/09/18 07:25:05;;;;;;;3.35;1.80;;;18.30;58.00;;;;;;5096097;28;20126;-81
2022/09/18 07:27:31;;;;;;;4.43;2.38;;;18.40;57.10;;;;;;5095886;28;20023;-85
2022/09/18 07:29:57;;;;;;;18.40;3.45;;;18.50;57.50;;;;;;5114563;28;20583;-80
2022/09/18 07:32:24;;;;;;;13.02;3.22;;;18.60;57.70;;;;;;5095504;28;20024;-83
2022/09/18 07:34:49;;;;;;;7.38;2.88;;;18.80;56.80;;;;;;5113952;28;20423;-86
2022/09/18 07:37:15;;;;;;;5.00;1.80;;;18.80;57.10;;;;;;5114116;28;20504;-89
2022/09/18 07:39:42;;;;;;;6.60;1.75;;;19.10;56.50;;;;;;5114128;28;20020;-87
2022/09/18 07:42:09;;;;;;;6.15;2.42;;;19.00;55.70;;;;;;5114108;28;20055;-84
2022/09/18 07:44:35;;;;;;;3.78;1.63;;;18.80;56.30;;;;;;5113994;28;20044;-84
2022/09/18 07:47:01;;;;;;;3.70;1.90;;;19.20;56.30;;;;;;5113115;28;20032;-79
2022/09/18 07:49:27;;;;;;;4.82;2.28;;;19.20;55.10;;;;;;5114007;28;20031;-91
2022/09/18 07:51:53;;;;;;;4.30;2.08;;;19.20;54.60;;;;;;5095391;28;20047;-79
2022/09/18 07:54:18;;;;;;;3.10;1.45;;;19.20;54.40;;;;;;5113856;28;20028;-85
2022/09/18 07:56:44;;;;;;;3.58;1.80;;;18.90;53.90;;;;;;5095836;28;20489;-79
2022/09/18 07:59:10;;;;;;;3.92;1.85;;;18.60;54.80;;;;;;5113647;28;20494;-80
2022/09/18 08:01:36;;;;;;;3.63;1.90;;;18.70;55.10;;;;;;5095906;28;20028;-84
2022/09/18 08:04:02;;;;;;;5.28;1.65;;;18.90;54.80;;;;;;5113601;28;20117;-86
2022/09/18 08:06:29;;;;;;;4.07;1.60;;;18.60;54.30;;;;;;5095607;28;20489;-82
2022/09/18 08:08:55;;;;;;;11.95;3.05;;;18.10;54.80;;;;;;5095688;28;20049;-85
2022/09/18 08:11:21;;;;;;;5.82;1.50;;;17.70;55.20;;;;;;5113456;28;20052;-83
2022/09/18 08:13:48;;;;;;;7.20;1.95;;;17.80;56.20;;;;;;5095626;28;20028;-83
2022/09/18 08:16:14;;;;;;;3.58;1.60;;;18.10;55.80;;;;;;5095515;28;20028;-82
2022/09/18 08:18:39;;;;;;;4.65;1.52;;;18.40;54.70;;;;;;5094822;28;20046;-83
2022/09/18 08:21:06;;;;;;;3.78;1.40;;;18.40;55.30;;;;;;5113927;28;20496;-80
2022/09/18 08:23:33;;;;;;;4.28;1.50;;;18.70;55.30;;;;;;4051303;28;10000711;-87
2022/09/18 08:26:00;;;;;;;2.47;1.33;;;18.70;54.20;;;;;;5091767;28;20035;-82
2022/09/18 08:28:26;;;;;;;3.15;1.50;;;18.70;54.30;;;;;;5095624;28;20050;-82
2022/09/18 08:30:52;;;;;;;3.15;1.40;;;18.70;54.00;;;;;;5095370;28;20102;-83
2022/09/18 08:33:18;;;;;;;5.75;1.80;;;18.50;54.80;;;;;;5095501;28;20020;-88
2022/09/18 08:35:44;;;;;;;3.95;1.83;;;18.60;55.10;;;;;;5113782;28;20062;-83
2022/09/18 08:38:10;;;;;;;3.70;1.63;;;18.70;54.30;;;;;;5095388;28;20462;-82
2022/09/18 08:41:03;;;;;;;4.78;1.40;;;19.10;54.80;;;;;;5113715;28;20055;-87
2022/09/18 08:43:40;;;;;;;4.60;1.40;;;19.10;53.70;;;;;;5113318;28;20031;-80
2022/09/18 08:46:13;;;;;;;3.45;1.30;;;18.80;54.10;;;;;;5095685;28;20048;-83
2022/09/18 08:49:04;;;;;;;4.18;1.30;;;18.80;53.40;;;;;;5095520;28;20028;-87
2022/09/18 08:51:36;;;;;;;4.30;1.40;;;18.80;53.00;;;;;;5010914;28;20038;-83
2022/09/18 08:54:43;;;;;;;3.22;1.25;;;18.80;52.20;;;;;;4994766;28;20030;-84
2022/09/18 08:57:35;;;;;;;2.78;1.20;;;18.60;53.20;;;;;;4914911;29;20043;-79
2022/09/18 09:00:14;;;;;;;3.17;1.30;;;18.50;54.40;;;;;;4901914;29;20071;-85
2022/09/18 09:02:46;;;;;;;1.85;1.15;;;19.20;53.20;;;;;;4902563;29;20092;-81
2022/09/18 09:05:28;;;;;;;3.13;1.48;;;19.30;51.80;;;;;;4917900;29;20036;-78
2022/09/18 09:08:24;;;;;;;5.18;1.30;;;19.30;52.70;;;;;;4915946;29;20032;-79
2022/09/18 09:11:16;;;;;;;5.68;1.30;;;19.20;50.80;;;;;;4918289;29;20035;-86
2022/09/18 09:14:03;;;;;;;6.28;1.70;;;18.80;51.70;;;;;;4910172;29;20040;-83
2022/09/18 09:16:59;;;;;;;3.67;1.60;;;18.60;52.70;;;;;;4917882;29;20036;-83
2022/09/18 09:19:41;;;;;;;9.27;4.03;;;18.70;51.90;;;;;;4918189;29;20361;-84
2022/09/18 09:22:31;;;;;;;8.23;1.80;;;18.60;52.40;;;;;;4917765;29;20044;-83
2022/09/18 09:25:03;;;;;;;4.70;2.00;;;18.60;52.80;;;;;;4901675;29;20111;-87
2022/09/18 09:27:41;;;;;;;4.90;1.88;;;18.80;52.20;;;;;;4924531;28;20032;-88
2022/09/18 09:30:12;;;;;;;3.80;1.92;;;18.80;52.70;;;;;;5014193;28;20049;-85
2022/09/18 09:32:50;;;;;;;5.47;1.50;;;18.60;52.60;;;;;;5018738;28;20057;-78
2022/09/18 09:35:20;;;;;;;3.92;1.20;;;18.60;52.80;;;;;;5098557;28;20053;-88
2022/09/18 09:37:47;;;;;;;;;;;18.20;53.00;;;;;;5116736;28;20050;-82
2022/09/18 09:40:31;;;;;;;3.33;1.45;;;17.90;53.70;;;;;;5116837;28;19990;-87
2022/09/18 09:43:30;;;;;;;3.05;1.30;;;18.40;53.50;;;;;;5116575;28;20069;-81
2022/09/18 09:46:01;;;;;;;3.58;1.35;;;18.70;52.60;;;;;;5115929;28;20412;-82
2022/09/18 09:48:36;;;;;;;4.60;1.50;;;19.00;52.10;;;;;;5116182;28;20024;-85
2022/09/18 09:51:14;;;;;;;8.25;1.30;;;18.70;52.70;;;;;;5097707;28;20099;-90
2022/09/18 09:53:40;;;;;;;2.58;1.05;;;19.10;52.90;;;;;;5097939;28;20381;-81
2022/09/18 09:56:05;;;;;;;4.72;1.30;;;19.50;51.80;;;;;;5115759;28;20458;-79
2022/09/18 09:58:59;;;;;;;4.35;1.77;;;19.50;51.30;;;;;;5115776;28;20024;-80
2022/09/18 10:01:33;;;;;;;5.13;1.33;;;18.90;51.70;;;;;;5116165;28;20024;-84
2022/09/18 10:04:32;;;;;;;4.63;2.10;;;18.80;52.80;;;;;;5115872;28;20023;-77
2022/09/18 10:07:10;;;;;;;10.10;3.13;;;19.00;52.70;;;;;;5097643;28;20122;-82
2022/09/18 10:09:46;;;;;;;6.93;1.58;;;19.20;52.80;;;;;;5097656;28;20027;-81
2022/09/18 10:12:28;;;;;;;4.22;1.42;;;19.40;52.10;;;;;;5097122;28;20068;-82
2022/09/18 10:15:11;;;;;;;5.32;2.25;;;19.50;51.80;;;;;;5116029;28;20080;-82
2022/09/18 10:17:40;;;;;;;4.70;1.70;;;19.00;52.60;;;;;;5115530;28;20139;-84
2022/09/18 10:20:06;;;;;;;3.33;1.60;;;18.90;52.50;;;;;;5115840;28;20072;-83
2022/09/18 10:22:34;;;;;;;8.07;1.63;;;18.30;53.50;;;;;;5115510;28;20030;-80
2022/09/18 10:25:06;;;;;;;6.13;1.50;;;18.40;54.20;;;;;;5097133;28;20114;-85
2022/09/18 10:27:32;;;;;;;3.97;1.30;;;18.70;54.00;;;;;;5097047;28;20024;-81
2022/09/18 10:29:58;;;;;;;2.60;1.20;;;19.10;53.60;;;;;;5097292;28;20028;-82
2022/09/18 10:32:36;;;;;;;2.58;1.40;;;19.30;53.40;;;;;;5097130;28;20024;-81
2022/09/18 10:35:27;;;;;;;5.95;1.70;;;19.10;52.40;;;;;;5097319;28;20015;-86
2022/09/18 10:37:53;;;;;;;5.85;1.45;;;18.90;53.10;;;;;;5115487;28;20036;-83
2022/09/18 10:40:39;;;;;;;6.50;2.15;;;19.00;52.60;;;;;;5097250;28;20072;-82
2022/09/18 10:43:18;;;;;;;3.33;1.52;;;18.90;52.80;;;;;;5114916;28;20057;-82
2022/09/18 10:45:51;;;;;;;5.25;2.20;;;18.90;52.90;;;;;;5112177;28;20051;-77
2022/09/18 10:48:23;;;;;;;3.05;1.60;;;19.10;53.50;;;;;;5097420;28;20081;-82
2022/09/18 10:50:58;;;;;;;5.72;1.50;;;19.10;53.40;;;;;;5097326;28;20023;-82
2022/09/18 10:53:33;;;;;;;3.75;1.38;;;19.10;53.20;;;;;;5114853;28;20028;-79
2022/09/18 10:56:15;;;;;;;2.70;1.20;;;19.20;52.80;;;;;;5097612;28;20469;-81
2022/09/18 10:58:42;;;;;;;3.55;1.30;;;18.80;52.70;;;;;;5096604;28;20038;-86
2022/09/18 11:01:09;;;;;;;5.22;1.40;;;18.80;53.60;;;;;;5096691;28;20054;-85
2022/09/18 11:03:48;;;;;;;2.85;1.35;;;18.80;53.00;;;;;;5114937;28;20019;-81
2022/09/18 11:06:22;;;;;;;4.68;1.50;;;18.60;53.30;;;;;;5114429;28;20047;-87
2022/09/18 11:08:59;;;;;;;6.03;1.60;;;18.60;53.20;;;;;;5097033;28;20027;-85
2022/09/18 11:11:29;;;;;;;5.47;1.30;;;18.70;53.00;;;;;;5096286;28;20019;-82
2022/09/18 11:14:15;;;;;;;3.80;1.50;;;18.50;53.60;;;;;;5096439;28;20065;-83
2022/09/18 11:16:45;;;;;;;3.70;1.35;;;18.60;53.00;;;;;;5114495;28;20027;-87
2022/09/18 11:19:11;;;;;;;4.75;2.47;;;18.60;53.30;;;;;;5096474;28;20437;-82
2022/09/18 11:21:58;;;;;;;5.18;1.80;;;18.90;53.20;;;;;;5095832;28;20497;-81
2022/09/18 11:24:26;;;;;;;3.15;1.70;;;18.90;52.90;;;;;;5096399;28;20019;-81
2022/09/18 11:26:56;;;;;;;4.43;2.00;;;18.90;52.60;;;;;;5095985;28;20027;-81
2022/09/18 11:29:38;;;;;;;4.57;1.90;;;18.80;52.70;;;;;;5095947;28;20026;-82
2022/09/18 11:32:24;;;;;;;5.95;1.50;;;18.60;52.80;;;;;;5096210;28;20023;-82
2022/09/18 11:34:56;;;;;;;5.18;2.00;;;18.70;52.10;;;;;;5096243;28;20023;-77
2022/09/18 11:37:42;;;;;;;7.30;1.80;;;18.80;52.70;;;;;;5095992;28;20076;-82
2022/09/18 11:40:18;;;;;;;3.45;1.65;;;18.90;52.20;;;;;;5095843;28;20030;-84
2022/09/18 11:42:46;;;;;;;5.28;1.40;;;19.10;52.80;;;;;;5095754;28;20026;-84
2022/09/18 11:45:20;;;;;;;3.25;1.42;;;19.70;52.30;;;;;;5113853;28;20051;-81
2022/09/18 11:48:05;;;;;;;6.00;1.85;;;19.90;52.10;;;;;;5095940;28;20142;-86
2022/09/18 11:50:34;;;;;;;3.85;1.67;;;20.50;51.80;;;;;;5096122;28;20428;-86
2022/09/18 11:53:09;;;;;;;10.63;1.58;;;21.00;50.00;;;;;;5113545;28;20068;-82
2022/09/18 11:55:56;;;;;;;4.85;1.50;;;20.70;50.30;;;;;;5085636;28;20084;-81
2022/09/18 11:58:37;;;;;;;3.05;1.30;;;20.60;50.40;;;;;;5093529;28;20020;-77
2022/09/18 12:01:33;;;;;;;3.33;1.40;;;20.60;51.20;;;;;;5076197;28;20031;-83
2022/09/18 12:04:16;;;;;;;4.15;1.40;;;21.00;50.80;;;;;;5075686;28;20028;-80
2022/09/18 12:06:56;;;;;;;2.75;1.27;;;21.00;50.90;;;;;;5075867;28;20036;-78
2022/09/18 12:09:27;;;;;;;2.70;1.20;;;21.10;50.00;;;;;;5093501;28;20040;-81
2022/09/18 12:13:16;;;;;;;3.00;1.40;;;21.80;49.50;;;;;;5087714;27;1351803;-81
2022/09/18 12:15:46;;;;;;;4.22;1.50;;;22.10;48.90;;;;;;5111912;28;20028;-88
2022/09/18 12:18:17;;;;;;;3.35;1.40;;;21.90;49.00;;;;;;5093718;28;20020;-88
2022/09/18 12:20:51;;;;;;;3.42;1.52;;;22.20;49.10;;;;;;5093568;28;20035;-79
2022/09/18 12:23:26;;;;;;;4.35;1.40;;;22.50;48.80;;;;;;5092883;28;20055;-89
2022/09/18 12:25:52;;;;;;;3.60;1.50;;;22.70;48.80;;;;;;5110782;28;20396;-79
2022/09/18 12:28:29;;;;;;;5.00;1.60;;;22.60;48.00;;;;;;5093000;28;20526;-86
2022/09/18 12:31:13;;;;;;;5.88;1.60;;;22.20;49.60;;;;;;5091385;28;20073;-85
2022/09/18 12:33:48;;;;;;;9.52;1.73;;;22.00;48.40;;;;;;5093095;28;20058;-83
2022/09/18 12:36:32;;;;;;;4.97;1.63;;;22.10;49.40;;;;;;5092786;28;20427;-85
2022/09/18 12:39:10;;;;;;;5.10;1.40;;;22.00;49.20;;;;;;5092746;28;20378;-82
2022/09/18 12:41:58;;;;;;;3.63;1.40;;;22.00;47.90;;;;;;5110824;28;20030;-85
2022/09/18 12:44:45;;;;;;;5.80;3.10;;;21.70;47.80;;;;;;4750708;28;10000415;-79
2022/09/18 12:47:20;;;;;;;3.30;1.30;;;21.30;47.30;;;;;;5129131;28;20098;-85
2022/09/18 12:50:07;;;;;;;3.30;1.52;;;20.90;48.00;;;;;;5110888;28;20023;-85
2022/09/18 12:52:56;;;;;;;2.90;1.35;;;20.70;48.10;;;;;;5129186;28;20047;-79
2022/09/18 12:55:39;;;;;;;6.90;1.60;;;20.80;49.10;;;;;;5072733;28;20066;-79
2022/09/18 12:58:46;;;;;;;4.78;1.40;;;21.20;48.90;;;;;;5090772;28;20058;-77
2022/09/18 13:01:49;;;;;;;3.75;1.58;;;21.40;49.70;;;;;;5108409;28;20020;-81
2022/09/18 13:04:38;;;;;;;4.40;1.58;;;21.60;48.50;;;;;;5090559;28;20028;-84
2022/09/18 13:07:17;;;;;;;5.57;1.60;;;21.70;49.00;;;;;;5085483;28;20016;-84
2022/09/18 13:10:01;;;;;;;4.65;1.30;;;22.10;49.20;;;;;;4716130;28;10000597;-77
2022/09/18 13:12:41;;;;;;;3.47;1.50;;;22.60;49.50;;;;;;5069880;28;20071;-86
2022/09/18 13:15:39;;;;;;;4.35;1.40;;;22.50;48.00;;;;;;5070329;28;20020;-86
2022/09/18 13:18:16;;;;;;;4.55;1.70;;;22.50;48.60;;;;;;5058736;28;20028;-84